sensor_id;sensor_type;location;lat;lon;timestamp;pressure;altitude;pressure_sealevel;temperature;humidity
37778;BME280;23615;51.506;7.678;2023-02-28T00:01:25;101415.69;;;0.32;85.07
37778;BME280;23615;51.506;7.678;2023-02-28T00:03:51;101408.91;;;0.30;85.29
37778;BME280;23615;51.506;7.678;2023-02-28T00:06:16;101416.31;;;0.25;85.25
37778;BME280;23615;51.506;7.678;2023-02-28T00:08:41;101412.88;;;0.24;85.43
37778;BME280;23615;51.506;7.678;2023-02-28T00:11:11;101407.34;;;0.27;85.65
37778;BME280;23615;51.506;7.678;2023-02-28T00:13:40;101411.91;;;0.25;85.64
37778;BME280;23615;51.506;7.678;2023-02-28T00:16:09;101410.47;;;0.21;85.74
37778;BME280;23615;51.506;7.678;2023-02-28T00:18:35;101415.00;;;0.19;86.03
37778;BME280;23615;51.506;7.678;2023-02-28T00:21:01;101408.56;;;0.23;86.14
37778;BME280;23615;51.506;7.678;2023-02-28T00:23:27;101413.81;;;0.23;86.29
37778;BME280;23615;51.506;7.678;2023-02-28T00:25:52;101411.44;;;0.20;86.08
37778;BME280;23615;51.506;7.678;2023-02-28T00:28:18;101408.91;;;0.19;85.73
37778;BME280;23615;51.506;7.678;2023-02-28T00:30:44;101410.84;;;0.17;86.24
37778;BME280;23615;51.506;7.678;2023-02-28T00:33:09;101411.81;;;0.16;86.31
37778;BME280;23615;51.506;7.678;2023-02-28T00:35:35;101410.03;;;0.16;86.15
37778;BME280;23615;51.506;7.678;2023-02-28T00:38:00;101402.16;;;0.16;86.31
37778;BME280;23615;51.506;7.678;2023-02-28T00:40:25;101407.28;;;0.18;86.27
37778;BME280;23615;51.506;7.678;2023-02-28T00:42:51;101402.16;;;0.16;86.13
37778;BME280;23615;51.506;7.678;2023-02-28T00:45:16;101395.34;;;0.14;86.12
37778;BME280;23615;51.506;7.678;2023-02-28T00:47:42;101399.63;;;0.15;86.04
37778;BME280;23615;51.506;7.678;2023-02-28T00:50:07;101400.00;;;0.10;86.24
37778;BME280;23615;51.506;7.678;2023-02-28T00:52:34;101408.81;;;0.09;86.16
37778;BME280;23615;51.506;7.678;2023-02-28T00:54:59;101405.38;;;0.09;85.96
37778;BME280;23615;51.506;7.678;2023-02-28T00:57:24;101405.50;;;0.07;86.25
37778;BME280;23615;51.506;7.678;2023-02-28T00:59:49;101406.34;;;0.08;86.11
37778;BME280;23615;51.506;7.678;2023-02-28T01:02:15;101410.88;;;0.06;86.15
37778;BME280;23615;51.506;7.678;2023-02-28T01:04:40;101405.63;;;0.06;86.02
37778;BME280;23615;51.506;7.678;2023-02-28T01:07:05;101397.03;;;0.04;85.65
37778;BME280;23615;51.506;7.678;2023-02-28T01:09:31;101403.34;;;0.01;85.98
37778;BME280;23615;51.506;7.678;2023-02-28T01:11:56;101396.56;;;-0.02;86.15
37778;BME280;23615;51.506;7.678;2023-02-28T01:14:21;101400.25;;;-0.04;85.64
37778;BME280;23615;51.506;7.678;2023-02-28T01:16:47;101396.19;;;-0.08;86.09
37778;BME280;23615;51.506;7.678;2023-02-28T01:19:12;101396.47;;;-0.11;85.61
37778;BME280;23615;51.506;7.678;2023-02-28T01:21:37;101401.00;;;-0.13;86.08
37778;BME280;23615;51.506;7.678;2023-02-28T01:24:04;101398.47;;;-0.15;85.73
37778;BME280;23615;51.506;7.678;2023-02-28T01:26:30;101398.59;;;-0.16;86.06
37778;BME280;23615;51.506;7.678;2023-02-28T01:28:55;101403.28;;;-0.20;85.93
37778;BME280;23615;51.506;7.678;2023-02-28T01:31:21;101399.31;;;-0.25;85.99
37778;BME280;23615;51.506;7.678;2023-02-28T01:33:47;101398.03;;;-0.31;85.66
37778;BME280;23615;51.506;7.678;2023-02-28T01:36:23;101402.78;;;-0.36;85.69
37778;BME280;23615;51.506;7.678;2023-02-28T01:38:49;101400.53;;;-0.41;85.64
37778;BME280;23615;51.506;7.678;2023-02-28T01:41:24;101404.31;;;-0.45;85.68
37778;BME280;23615;51.506;7.678;2023-02-28T01:46:16;101398.63;;;-0.50;86.19
37778;BME280;23615;51.506;7.678;2023-02-28T01:48:46;101396.94;;;-0.51;86.01
37778;BME280;23615;51.506;7.678;2023-02-28T01:51:20;101398.84;;;-0.53;86.62
37778;BME280;23615;51.506;7.678;2023-02-28T01:53:50;101399.78;;;-0.54;86.36
37778;BME280;23615;51.506;7.678;2023-02-28T01:56:20;101399.78;;;-0.54;86.63
37778;BME280;23615;51.506;7.678;2023-02-28T01:58:49;101400.03;;;-0.57;86.33
37778;BME280;23615;51.506;7.678;2023-02-28T02:01:15;101402.78;;;-0.58;86.74
37778;BME280;23615;51.506;7.678;2023-02-28T02:03:48;101396.81;;;-0.60;86.64
37778;BME280;23615;51.506;7.678;2023-02-28T02:06:17;101401.94;;;-0.59;86.60
37778;BME280;23615;51.506;7.678;2023-02-28T02:08:42;101404.56;;;-0.59;86.94
37778;BME280;23615;51.506;7.678;2023-02-28T02:11:09;101390.63;;;-0.59;86.86
37778;BME280;23615;51.506;7.678;2023-02-28T02:19:06;101385.50;;;-0.61;86.62
37778;BME280;23615;51.506;7.678;2023-02-28T02:24:56;101385.03;;;-0.66;86.71
37778;BME280;23615;51.506;7.678;2023-02-28T02:36:45;101386.69;;;-0.76;86.50
37778;BME280;23615;51.506;7.678;2023-02-28T02:39:04;101383.34;;;-0.78;86.50
37778;BME280;23615;51.506;7.678;2023-02-28T02:44:09;101387.97;;;-0.82;86.67
37778;BME280;23615;51.506;7.678;2023-02-28T02:46:41;101385.34;;;-0.82;86.95
37778;BME280;23615;51.506;7.678;2023-02-28T02:49:12;101377.63;;;-0.83;86.86
37778;BME280;23615;51.506;7.678;2023-02-28T02:51:41;101384.53;;;-0.82;87.14
37778;BME280;23615;51.506;7.678;2023-02-28T02:54:13;101386.53;;;-0.86;86.45
37778;BME280;23615;51.506;7.678;2023-02-28T02:56:42;101388.31;;;-0.86;86.80
37778;BME280;23615;51.506;7.678;2023-02-28T02:59:11;101384.97;;;-0.88;86.51
37778;BME280;23615;51.506;7.678;2023-02-28T03:01:39;101383.31;;;-0.89;86.85
37778;BME280;23615;51.506;7.678;2023-02-28T03:04:09;101381.31;;;-0.86;86.99
37778;BME280;23615;51.506;7.678;2023-02-28T03:06:36;101378.69;;;-0.86;87.23
37778;BME280;23615;51.506;7.678;2023-02-28T03:09:01;101385.81;;;-0.88;86.91
37778;BME280;23615;51.506;7.678;2023-02-28T03:11:27;101378.78;;;-0.87;87.09
37778;BME280;23615;51.506;7.678;2023-02-28T03:14:21;101379.63;;;-0.87;86.76
37778;BME280;23615;51.506;7.678;2023-02-28T03:22:23;101376.66;;;-0.93;86.84
37778;BME280;23615;51.506;7.678;2023-02-28T03:25:08;101374.97;;;-0.94;86.46
37778;BME280;23615;51.506;7.678;2023-02-28T03:28:00;101371.06;;;-0.78;86.04
37778;BME280;23615;51.506;7.678;2023-02-28T03:30:49;101377.59;;;-0.94;85.63
37778;BME280;23615;51.506;7.678;2023-02-28T03:33:21;101370.44;;;-1.03;86.26
37778;BME280;23615;51.506;7.678;2023-02-28T03:35:53;101381.13;;;-1.06;86.48
37778;BME280;23615;51.506;7.678;2023-02-28T03:38:35;101381.13;;;-1.06;86.38
37778;BME280;23615;51.506;7.678;2023-02-28T03:41:08;101380.41;;;-1.08;86.24
37778;BME280;23615;51.506;7.678;2023-02-28T03:43:38;101384.13;;;-1.11;86.12
37778;BME280;23615;51.506;7.678;2023-02-28T03:46:10;101388.50;;;-1.11;86.35
37778;BME280;23615;51.506;7.678;2023-02-28T03:48:44;101391.13;;;-1.11;86.53
37778;BME280;23615;51.506;7.678;2023-02-28T03:51:15;101384.81;;;-1.09;86.58
37778;BME280;23615;51.506;7.678;2023-02-28T03:53:51;101392.06;;;-1.13;86.28
37778;BME280;23615;51.506;7.678;2023-02-28T03:56:24;101386.13;;;-1.15;86.32
37778;BME280;23615;51.506;7.678;2023-02-28T03:59:10;101382.88;;;-1.18;86.52
37778;BME280;23615;51.506;7.678;2023-02-28T04:01:41;101384.91;;;-1.22;86.43
37778;BME280;23615;51.506;7.678;2023-02-28T04:04:08;101380.72;;;-1.24;85.98
37778;BME280;23615;51.506;7.678;2023-02-28T04:06:34;101387.63;;;-1.23;86.35
37778;BME280;23615;51.506;7.678;2023-02-28T04:09:00;101377.28;;;-1.25;86.17
37778;BME280;23615;51.506;7.678;2023-02-28T04:11:34;101392.75;;;-1.22;86.53
37778;BME280;23615;51.506;7.678;2023-02-28T04:14:01;101391.94;;;-1.22;86.27
37778;BME280;23615;51.506;7.678;2023-02-28T04:16:27;101389.31;;;-1.22;86.26
37778;BME280;23615;51.506;7.678;2023-02-28T04:18:52;101389.31;;;-1.22;85.82
37778;BME280;23615;51.506;7.678;2023-02-28T04:21:18;101393.81;;;-1.24;86.00
37778;BME280;23615;51.506;7.678;2023-02-28T04:23:46;101389.63;;;-1.27;86.06
37778;BME280;23615;51.506;7.678;2023-02-28T04:26:11;101387.00;;;-1.27;85.74
37778;BME280;23615;51.506;7.678;2023-02-28T04:28:37;101385.47;;;-1.29;85.67
37778;BME280;23615;51.506;7.678;2023-02-28T04:31:04;101390.09;;;-1.33;85.47
37778;BME280;23615;51.506;7.678;2023-02-28T04:33:30;101386.06;;;-1.37;85.74
37778;BME280;23615;51.506;7.678;2023-02-28T04:36:04;101389.00;;;-1.41;85.68
37778;BME280;23615;51.506;7.678;2023-02-28T04:38:36;101387.44;;;-1.44;85.44
37778;BME280;23615;51.506;7.678;2023-02-28T04:41:02;101391.25;;;-1.48;85.62
37778;BME280;23615;51.506;7.678;2023-02-28T04:43:27;101393.13;;;-1.50;85.93
37778;BME280;23615;51.506;7.678;2023-02-28T04:45:54;101393.34;;;-1.53;86.06
37778;BME280;23615;51.506;7.678;2023-02-28T04:48:25;101400.50;;;-1.55;85.99
37778;BME280;23615;51.506;7.678;2023-02-28T04:50:52;101397.97;;;-1.57;85.67
37778;BME280;23615;51.506;7.678;2023-02-28T04:53:18;101396.41;;;-1.59;85.69
37778;BME280;23615;51.506;7.678;2023-02-28T04:55:44;101398.28;;;-1.61;86.08
37778;BME280;23615;51.506;7.678;2023-02-28T04:58:09;101401.97;;;-1.64;85.85
37778;BME280;23615;51.506;7.678;2023-02-28T05:00:35;101400.31;;;-1.65;86.27
37778;BME280;23615;51.506;7.678;2023-02-28T05:03:00;101402.09;;;-1.65;86.06
37778;BME280;23615;51.506;7.678;2023-02-28T05:05:25;101394.34;;;-1.67;85.93
37778;BME280;23615;51.506;7.678;2023-02-28T05:07:51;101391.75;;;-1.67;85.89
37778;BME280;23615;51.506;7.678;2023-02-28T05:10:16;101395.31;;;-1.68;85.70
37778;BME280;23615;51.506;7.678;2023-02-28T05:12:42;101405.97;;;-1.71;85.95
37778;BME280;23615;51.506;7.678;2023-02-28T05:15:12;101400.16;;;-1.74;86.18
37778;BME280;23615;51.506;7.678;2023-02-28T05:17:37;101401.19;;;-1.77;85.88
37778;BME280;23615;51.506;7.678;2023-02-28T05:20:03;101407.38;;;-1.78;85.85
37778;BME280;23615;51.506;7.678;2023-02-28T05:22:30;101404.28;;;-1.24;90.20
37778;BME280;23615;51.506;7.678;2023-02-28T05:24:55;101409.69;;;-1.15;89.40
37778;BME280;23615;51.506;7.678;2023-02-28T05:27:20;101406.31;;;-1.28;88.83
37778;BME280;23615;51.506;7.678;2023-02-28T05:29:45;101416.00;;;-1.41;88.58
37778;BME280;23615;51.506;7.678;2023-02-28T05:32:11;101400.25;;;-1.52;88.04
37778;BME280;23615;51.506;7.678;2023-02-28T05:34:40;101411.28;;;-1.60;88.03
37778;BME280;23615;51.506;7.678;2023-02-28T05:37:08;101408.28;;;-1.66;87.47
37778;BME280;23615;51.506;7.678;2023-02-28T05:39:36;101412.16;;;-1.72;87.60
37778;BME280;23615;51.506;7.678;2023-02-28T05:42:02;101414.16;;;-1.75;87.22
37778;BME280;23615;51.506;7.678;2023-02-28T05:44:27;101416.06;;;-1.77;87.70
37778;BME280;23615;51.506;7.678;2023-02-28T05:46:52;101414.38;;;-1.78;87.38
37778;BME280;23615;51.506;7.678;2023-02-28T05:49:17;101420.66;;;-1.81;87.08
37778;BME280;23615;51.506;7.678;2023-02-28T05:51:43;101414.59;;;-1.81;86.96
37778;BME280;23615;51.506;7.678;2023-02-28T05:54:08;101420.06;;;-1.84;87.15
37778;BME280;23615;51.506;7.678;2023-02-28T05:56:33;101421.00;;;-1.85;87.06
37778;BME280;23615;51.506;7.678;2023-02-28T05:59:04;101419.44;;;-1.88;87.12
37778;BME280;23615;51.506;7.678;2023-02-28T06:01:40;101428.22;;;-1.89;86.85
37778;BME280;23615;51.506;7.678;2023-02-28T06:04:08;101421.44;;;-1.92;87.13
37778;BME280;23615;51.506;7.678;2023-02-28T06:06:34;101419.88;;;-1.94;86.41
37778;BME280;23615;51.506;7.678;2023-02-28T06:09:00;101423.75;;;-2.00;86.88
37778;BME280;23615;51.506;7.678;2023-02-28T06:11:27;101425.41;;;-1.99;86.81
37778;BME280;23615;51.506;7.678;2023-02-28T06:13:59;101424.81;;;-2.02;86.93
37778;BME280;23615;51.506;7.678;2023-02-28T06:16:26;101431.59;;;-2.00;86.76
37778;BME280;23615;51.506;7.678;2023-02-28T06:18:52;101440.50;;;-2.02;87.19
37778;BME280;23615;51.506;7.678;2023-02-28T06:21:18;101444.88;;;-2.03;87.18
37778;BME280;23615;51.506;7.678;2023-02-28T06:23:43;101438.00;;;-2.04;87.05
37778;BME280;23615;51.506;7.678;2023-02-28T06:26:09;101442.38;;;-2.04;87.02
37778;BME280;23615;51.506;7.678;2023-02-28T06:28:34;101443.31;;;-2.05;87.15
37778;BME280;23615;51.506;7.678;2023-02-28T06:31:08;101439.03;;;-2.06;86.80
37778;BME280;23615;51.506;7.678;2023-02-28T06:33:34;101445.09;;;-2.06;86.68
37778;BME280;23615;51.506;7.678;2023-02-28T06:36:00;101444.59;;;-2.11;86.81
37778;BME280;23615;51.506;7.678;2023-02-28T06:38:25;101445.44;;;-2.10;86.94
37778;BME280;23615;51.506;7.678;2023-02-28T06:40:54;101452.31;;;-2.09;86.78
37778;BME280;23615;51.506;7.678;2023-02-28T06:43:21;101443.66;;;-2.10;87.00
37778;BME280;23615;51.506;7.678;2023-02-28T06:45:46;101441.84;;;-2.09;87.06
37778;BME280;23615;51.506;7.678;2023-02-28T06:48:12;101445.31;;;-2.09;87.25
37778;BME280;23615;51.506;7.678;2023-02-28T06:50:37;101449.38;;;-2.05;87.43
37778;BME280;23615;51.506;7.678;2023-02-28T06:53:03;101445.72;;;-2.02;87.34
37778;BME280;23615;51.506;7.678;2023-02-28T06:55:28;101450.13;;;-2.03;87.46
37778;BME280;23615;51.506;7.678;2023-02-28T06:57:54;101460.47;;;-2.01;87.15
37778;BME280;23615;51.506;7.678;2023-02-28T07:00:20;101456.09;;;-2.01;87.17
37778;BME280;23615;51.506;7.678;2023-02-28T07:02:46;101456.78;;;-1.99;87.33
37778;BME280;23615;51.506;7.678;2023-02-28T07:05:15;101472.38;;;-1.97;87.13
37778;BME280;23615;51.506;7.678;2023-02-28T07:07:49;101466.00;;;-1.93;86.96
37778;BME280;23615;51.506;7.678;2023-02-28T07:10:18;101466.84;;;-1.93;87.22
37778;BME280;23615;51.506;7.678;2023-02-28T07:12:44;101475.19;;;-1.88;86.99
37778;BME280;23615;51.506;7.678;2023-02-28T07:15:10;101478.34;;;-1.82;87.19
37778;BME280;23615;51.506;7.678;2023-02-28T07:17:35;101479.03;;;-1.80;86.60
37778;BME280;23615;51.506;7.678;2023-02-28T07:20:01;101484.16;;;-1.79;87.11
37778;BME280;23615;51.506;7.678;2023-02-28T07:22:26;101478.63;;;-1.74;86.93
37778;BME280;23615;51.506;7.678;2023-02-28T07:24:51;101481.72;;;-1.69;86.83
37778;BME280;23615;51.506;7.678;2023-02-28T07:27:17;101481.44;;;-1.65;86.79
37778;BME280;23615;51.506;7.678;2023-02-28T07:29:49;101474.91;;;-1.59;87.14
37778;BME280;23615;51.506;7.678;2023-02-28T07:32:15;101478.75;;;-1.52;86.53
37778;BME280;23615;51.506;7.678;2023-02-28T07:34:43;101487.34;;;-1.50;87.19
37778;BME280;23615;51.506;7.678;2023-02-28T07:37:08;101480.09;;;-1.46;86.67
37778;BME280;23615;51.506;7.678;2023-02-28T07:39:34;101482.47;;;-1.43;86.95
37778;BME280;23615;51.506;7.678;2023-02-28T07:41:59;101478.38;;;-1.35;86.36
37778;BME280;23615;51.506;7.678;2023-02-28T07:44:26;101475.75;;;-1.35;86.92
37778;BME280;23615;51.506;7.678;2023-02-28T07:46:51;101473.03;;;-1.33;86.76
37778;BME280;23615;51.506;7.678;2023-02-28T07:49:18;101483.19;;;-1.29;87.00
37778;BME280;23615;51.506;7.678;2023-02-28T07:51:46;101478.63;;;-1.27;86.90
37778;BME280;23615;51.506;7.678;2023-02-28T07:54:11;101479.47;;;-1.26;86.42
37778;BME280;23615;51.506;7.678;2023-02-28T07:56:37;101472.47;;;-1.26;86.67
37778;BME280;23615;51.506;7.678;2023-02-28T07:59:02;101476.66;;;-1.23;86.42
37778;BME280;23615;51.506;7.678;2023-02-28T08:01:27;101475.69;;;-1.22;86.27
37778;BME280;23615;51.506;7.678;2023-02-28T08:03:53;101482.50;;;-1.20;86.23
37778;BME280;23615;51.506;7.678;2023-02-28T08:06:22;101487.38;;;-1.15;86.30
37778;BME280;23615;51.506;7.678;2023-02-28T08:08:48;101484.44;;;-1.10;85.83
37778;BME280;23615;51.506;7.678;2023-02-28T08:11:14;101473.03;;;-1.09;86.28
37778;BME280;23615;51.506;7.678;2023-02-28T08:13:40;101484.84;;;-1.04;86.36
37778;BME280;23615;51.506;7.678;2023-02-28T08:16:07;101488.19;;;-1.02;86.23
37778;BME280;23615;51.506;7.678;2023-02-28T08:18:32;101482.84;;;-1.00;86.16
37778;BME280;23615;51.506;7.678;2023-02-28T08:20:58;101494.75;;;-0.96;85.72
37778;BME280;23615;51.506;7.678;2023-02-28T08:23:24;101488.34;;;-0.92;85.70
37778;BME280;23615;51.506;7.678;2023-02-28T08:25:56;101484.63;;;-0.90;85.73
37778;BME280;23615;51.506;7.678;2023-02-28T08:28:22;101488.72;;;-0.86;85.70
37778;BME280;23615;51.506;7.678;2023-02-28T08:30:47;101489.34;;;-0.82;85.08
37778;BME280;23615;51.506;7.678;2023-02-28T08:33:14;101488.97;;;-0.78;84.98
37778;BME280;23615;51.506;7.678;2023-02-28T08:35:39;101492.22;;;-0.74;85.32
37778;BME280;23615;51.506;7.678;2023-02-28T08:38:04;101490.91;;;-0.68;84.55
37778;BME280;23615;51.506;7.678;2023-02-28T08:40:29;101497.81;;;-0.67;85.15
37778;BME280;23615;51.506;7.678;2023-02-28T08:42:55;101503.31;;;-0.59;84.57
37778;BME280;23615;51.506;7.678;2023-02-28T08:45:20;101499.63;;;-0.57;84.39
37778;BME280;23615;51.506;7.678;2023-02-28T08:47:45;101497.75;;;-0.55;84.81
37778;BME280;23615;51.506;7.678;2023-02-28T08:50:11;101488.56;;;-0.49;84.70
37778;BME280;23615;51.506;7.678;2023-02-28T08:52:36;101495.13;;;-0.44;83.94
37778;BME280;23615;51.506;7.678;2023-02-28T08:55:03;101489.88;;;-0.44;84.35
37778;BME280;23615;51.506;7.678;2023-02-28T08:57:29;101495.38;;;-0.47;83.67
37778;BME280;23615;51.506;7.678;2023-02-28T09:00:02;101493.22;;;-0.42;83.44
37778;BME280;23615;51.506;7.678;2023-02-28T09:02:42;101492.91;;;-0.37;82.96
37778;BME280;23615;51.506;7.678;2023-02-28T09:05:10;101497.78;;;-0.32;83.09
37778;BME280;23615;51.506;7.678;2023-02-28T09:07:36;101491.56;;;-0.31;83.19
37778;BME280;23615;51.506;7.678;2023-02-28T09:10:01;101494.19;;;-0.31;83.43
37778;BME280;23615;51.506;7.678;2023-02-28T09:12:27;101493.97;;;-0.28;83.34
37778;BME280;23615;51.506;7.678;2023-02-28T09:14:56;101491.59;;;-0.20;82.86
37778;BME280;23615;51.506;7.678;2023-02-28T09:17:22;101491.22;;;-0.16;82.89
37778;BME280;23615;51.506;7.678;2023-02-28T09:19:48;101486.47;;;-0.11;82.35
37778;BME280;23615;51.506;7.678;2023-02-28T09:22:14;101489.56;;;-0.06;82.46
37778;BME280;23615;51.506;7.678;2023-02-28T09:24:39;101484.22;;;-0.04;82.34
37778;BME280;23615;51.506;7.678;2023-02-28T09:27:05;101485.38;;;0.03;82.42
37778;BME280;23615;51.506;7.678;2023-02-28T09:29:32;101487.53;;;0.09;81.80
37778;BME280;23615;51.506;7.678;2023-02-28T09:31:57;101498.28;;;0.06;81.48
37778;BME280;23615;51.506;7.678;2023-02-28T09:34:26;101497.44;;;0.06;81.11
37778;BME280;23615;51.506;7.678;2023-02-28T09:36:51;101491.38;;;0.05;81.00
37778;BME280;23615;51.506;7.678;2023-02-28T09:39:20;101494.44;;;0.10;81.00
37778;BME280;23615;51.506;7.678;2023-02-28T09:41:48;101497.78;;;0.12;80.47
37778;BME280;23615;51.506;7.678;2023-02-28T09:47:30;101488.84;;;0.26;80.22
37778;BME280;23615;51.506;7.678;2023-02-28T09:50:03;101496.22;;;0.32;80.50
37778;BME280;23615;51.506;7.678;2023-02-28T09:52:32;101493.94;;;0.38;80.56
37778;BME280;23615;51.506;7.678;2023-02-28T09:55:30;101499.19;;;0.50;80.70
37778;BME280;23615;51.506;7.678;2023-02-28T09:57:59;101498.22;;;0.51;80.55
37778;BME280;23615;51.506;7.678;2023-02-28T10:00:32;101496.66;;;0.59;79.56
37778;BME280;23615;51.506;7.678;2023-02-28T10:03:04;101489.84;;;0.57;79.49
37778;BME280;23615;51.506;7.678;2023-02-28T10:08:37;101490.06;;;0.65;79.73
37778;BME280;23615;51.506;7.678;2023-02-28T10:11:07;101497.59;;;0.69;78.93
37778;BME280;23615;51.506;7.678;2023-02-28T10:13:58;101491.28;;;0.72;78.60
37778;BME280;23615;51.506;7.678;2023-02-28T10:19:29;101488.09;;;0.89;78.40
37778;BME280;23615;51.506;7.678;2023-02-28T10:22:17;101488.63;;;1.04;77.30
37778;BME280;23615;51.506;7.678;2023-02-28T10:24:46;101487.44;;;1.08;77.12
37778;BME280;23615;51.506;7.678;2023-02-28T10:27:18;101473.69;;;1.04;75.76
37778;BME280;23615;51.506;7.678;2023-02-28T10:29:53;101470.56;;;1.10;75.68
37778;BME280;23615;51.506;7.678;2023-02-28T10:32:21;101474.16;;;1.09;75.50
37778;BME280;23615;51.506;7.678;2023-02-28T10:34:59;101472.19;;;1.23;75.37
37778;BME280;23615;51.506;7.678;2023-02-28T10:37:26;101470.69;;;1.30;75.32
37778;BME280;23615;51.506;7.678;2023-02-28T10:39:52;101472.06;;;1.45;75.16
37778;BME280;23615;51.506;7.678;2023-02-28T10:42:23;101470.84;;;1.49;74.01
37778;BME280;23615;51.506;7.678;2023-02-28T10:47:30;101462.03;;;1.60;73.27
37778;BME280;23615;51.506;7.678;2023-02-28T10:49:57;101455.41;;;1.65;73.48
37778;BME280;23615;51.506;7.678;2023-02-28T10:52:41;101452.16;;;1.73;73.65
37778;BME280;23615;51.506;7.678;2023-02-28T10:55:22;101456.38;;;1.95;73.88
37778;BME280;23615;51.506;7.678;2023-02-28T10:57:48;101455.56;;;1.94;72.27
37778;BME280;23615;51.506;7.678;2023-02-28T11:00:25;101456.00;;;1.99;71.28
37778;BME280;23615;51.506;7.678;2023-02-28T11:02:56;101459.47;;;2.00;70.57
37778;BME280;23615;51.506;7.678;2023-02-28T11:05:31;101454.75;;;2.03;71.61
37778;BME280;23615;51.506;7.678;2023-02-28T11:08:04;101461.72;;;2.14;70.58
37778;BME280;23615;51.506;7.678;2023-02-28T11:10:32;101459.34;;;2.11;70.67
37778;BME280;23615;51.506;7.678;2023-02-28T11:13:00;101461.22;;;2.30;71.25
37778;BME280;23615;51.506;7.678;2023-02-28T11:15:28;101451.81;;;2.37;71.14
37778;BME280;23615;51.506;7.678;2023-02-28T11:18:06;101452.81;;;2.45;70.26
37778;BME280;23615;51.506;7.678;2023-02-28T11:20:40;101444.63;;;2.48;69.05
37778;BME280;23615;51.506;7.678;2023-02-28T11:23:12;101451.44;;;2.51;68.92
37778;BME280;23615;51.506;7.678;2023-02-28T11:25:38;101447.00;;;2.61;67.98
37778;BME280;23615;51.506;7.678;2023-02-28T11:28:25;101449.19;;;2.56;68.06
37778;BME280;23615;51.506;7.678;2023-02-28T11:33:48;101446.88;;;2.62;69.44
37778;BME280;23615;51.506;7.678;2023-02-28T11:36:27;101446.19;;;2.70;67.57
37778;BME280;23615;51.506;7.678;2023-02-28T11:39:07;101437.19;;;2.73;67.34
37778;BME280;23615;51.506;7.678;2023-02-28T11:55:57;101426.91;;;2.98;66.86
37778;BME280;23615;51.506;7.678;2023-02-28T11:58:51;101421.31;;;3.11;66.40
37778;BME280;23615;51.506;7.678;2023-02-28T12:02:04;101418.78;;;3.38;67.12
37778;BME280;23615;51.506;7.678;2023-02-28T12:07:02;101424.88;;;3.49;66.65
37778;BME280;23615;51.506;7.678;2023-02-28T12:09:44;101420.16;;;3.43;66.60
37778;BME280;23615;51.506;7.678;2023-02-28T12:15:36;101425.16;;;3.46;65.93
37778;BME280;23615;51.506;7.678;2023-02-28T12:18:34;101422.31;;;3.66;66.42
37778;BME280;23615;51.506;7.678;2023-02-28T12:21:34;101412.31;;;3.70;65.57
37778;BME280;23615;51.506;7.678;2023-02-28T12:26:46;101406.94;;;3.89;64.66
37778;BME280;23615;51.506;7.678;2023-02-28T12:29:24;101407.56;;;3.73;65.02
37778;BME280;23615;51.506;7.678;2023-02-28T12:31:58;101401.34;;;3.65;65.57
37778;BME280;23615;51.506;7.678;2023-02-28T12:37:37;101382.00;;;3.74;66.58
37778;BME280;23615;51.506;7.678;2023-02-28T12:40:10;101379.56;;;3.90;66.19
37778;BME280;23615;51.506;7.678;2023-02-28T12:42:41;101381.91;;;3.93;65.83
37778;BME280;23615;51.506;7.678;2023-02-28T12:45:13;101378.19;;;3.86;64.69
37778;BME280;23615;51.506;7.678;2023-02-28T12:47:44;101380.50;;;3.71;64.67
37778;BME280;23615;51.506;7.678;2023-02-28T12:50:12;101379.75;;;3.79;66.01
37778;BME280;23615;51.506;7.678;2023-02-28T12:55:54;101369.94;;;3.71;65.89
37778;BME280;23615;51.506;7.678;2023-02-28T12:58:06;101360.00;;;3.83;65.04
37778;BME280;23615;51.506;7.678;2023-02-28T13:00:39;101362.13;;;3.80;65.90
37778;BME280;23615;51.506;7.678;2023-02-28T13:03:28;101357.22;;;3.85;65.64
37778;BME280;23615;51.506;7.678;2023-02-28T13:13:57;101353.50;;;4.05;65.51
37778;BME280;23615;51.506;7.678;2023-02-28T13:16:23;101340.97;;;4.07;65.18
37778;BME280;23615;51.506;7.678;2023-02-28T13:18:48;101342.94;;;4.05;64.61
37778;BME280;23615;51.506;7.678;2023-02-28T13:21:30;101344.06;;;4.02;65.42
37778;BME280;23615;51.506;7.678;2023-02-28T13:24:00;101345.22;;;4.18;64.66
37778;BME280;23615;51.506;7.678;2023-02-28T13:29:05;101333.97;;;4.33;63.74
37778;BME280;23615;51.506;7.678;2023-02-28T13:34:36;101332.31;;;4.32;63.34
37778;BME280;23615;51.506;7.678;2023-02-28T13:47:28;101318.13;;;4.51;64.59
37778;BME280;23615;51.506;7.678;2023-02-28T13:50:21;101313.81;;;4.50;64.64
37778;BME280;23615;51.506;7.678;2023-02-28T13:52:59;101312.31;;;4.47;65.26
37778;BME280;23615;51.506;7.678;2023-02-28T13:55:53;101320.16;;;4.57;65.75
37778;BME280;23615;51.506;7.678;2023-02-28T13:58:33;101323.88;;;4.64;66.05
37778;BME280;23615;51.506;7.678;2023-02-28T14:06:58;101320.00;;;4.59;66.21
37778;BME280;23615;51.506;7.678;2023-02-28T14:09:27;101312.59;;;4.62;66.41
37778;BME280;23615;51.506;7.678;2023-02-28T14:15:03;101319.16;;;4.58;65.96
37778;BME280;23615;51.506;7.678;2023-02-28T14:17:30;101305.25;;;4.56;66.11
37778;BME280;23615;51.506;7.678;2023-02-28T14:19:57;101313.44;;;4.63;66.39
37778;BME280;23615;51.506;7.678;2023-02-28T14:22:35;101310.16;;;4.69;65.63
37778;BME280;23615;51.506;7.678;2023-02-28T14:35:54;101316.28;;;4.69;64.11
37778;BME280;23615;51.506;7.678;2023-02-28T14:38:30;101312.97;;;4.67;64.72
37778;BME280;23615;51.506;7.678;2023-02-28T14:40:57;101311.16;;;4.68;64.48
37778;BME280;23615;51.506;7.678;2023-02-28T14:43:25;101312.88;;;4.77;64.10
37778;BME280;23615;51.506;7.678;2023-02-28T14:45:54;101310.47;;;4.66;64.04
37778;BME280;23615;51.506;7.678;2023-02-28T14:48:20;101310.53;;;4.74;64.33
37778;BME280;23615;51.506;7.678;2023-02-28T14:50:59;101301.38;;;4.86;63.99
37778;BME280;23615;51.506;7.678;2023-02-28T14:53:30;101294.94;;;4.88;64.47
37778;BME280;23615;51.506;7.678;2023-02-28T14:56:00;101298.09;;;4.92;64.85
37778;BME280;23615;51.506;7.678;2023-02-28T14:58:33;101290.53;;;4.97;64.47
37778;BME280;23615;51.506;7.678;2023-02-28T15:01:03;101296.81;;;4.96;64.40
37778;BME280;23615;51.506;7.678;2023-02-28T15:05:59;101297.63;;;5.22;64.64